createdAt,value
2019-04-14T00:00:33.726Z,34.90
2019-04-14T00:03:04.430Z,33.43
2019-04-14T00:05:34.459Z,30.97
2019-04-14T00:08:04.671Z,31.90
2019-04-14T00:10:33.399Z,32.67
2019-04-14T00:13:02.533Z,32.33
2019-04-14T00:15:38.934Z,33.53
2019-04-14T00:18:01.261Z,32.63
2019-04-14T00:20:29.720Z,31.23
2019-04-14T00:22:58.170Z,34.10
2019-04-14T00:25:26.607Z,33.53
2019-04-14T00:27:55.059Z,31.97
2019-04-14T00:30:25.182Z,32.93
2019-04-14T00:32:55.390Z,34.03
2019-04-14T00:35:31.964Z,32.73
2019-04-14T00:38:21.680Z,34.80
2019-04-14T00:41:09.331Z,34.20
2019-04-14T00:43:39.658Z,34.13
2019-04-14T00:46:12.793Z,32.70
2019-04-14T00:48:41.248Z,30.47
2019-04-14T00:51:09.661Z,31.83
2019-04-14T00:53:38.249Z,33.10
2019-04-14T00:56:08.373Z,31.87
2019-04-14T00:58:37.003Z,34.00
2019-04-14T01:01:06.872Z,33.80
2019-04-14T01:03:35.419Z,29.30
2019-04-14T01:06:05.407Z,31.67
2019-04-14T01:08:33.981Z,32.23
2019-04-14T01:11:03.049Z,32.43
2019-04-14T01:13:31.640Z,31.63
2019-04-14T01:16:07.215Z,32.13
2019-04-14T01:18:30.199Z,31.83
2019-04-14T01:20:58.619Z,32.07
2019-04-14T01:23:28.218Z,31.50
2019-04-14T01:25:57.004Z,32.50
2019-04-14T01:28:26.496Z,31.83
2019-04-14T01:30:56.502Z,35.70
2019-04-14T01:33:25.140Z,33.13
2019-04-14T01:35:53.587Z,32.13
2019-04-14T01:38:23.238Z,35.67
2019-04-14T01:40:53.060Z,35.63
2019-04-14T01:43:21.576Z,34.43
2019-04-14T01:46:04.308Z,33.43
2019-04-14T01:48:21.216Z,33.30
2019-04-14T01:50:51.662Z,34.07
2019-04-14T01:53:37.956Z,32.53
2019-04-14T01:56:08.073Z,34.07
2019-04-14T01:58:38.248Z,33.73
2019-04-14T02:01:08.477Z,35.50
2019-04-14T02:03:36.999Z,33.73
2019-04-14T02:06:05.648Z,34.80
2019-04-14T02:08:35.189Z,36.97
2019-04-14T02:11:05.113Z,34.73
2019-04-14T02:13:33.832Z,36.47
2019-04-14T02:16:15.064Z,36.33
2019-04-14T02:18:32.446Z,39.23
2019-04-14T02:21:02.052Z,33.53
2019-04-14T02:23:30.512Z,35.83
2019-04-14T02:25:59.987Z,33.73
2019-04-14T02:28:28.911Z,32.60
2019-04-14T02:31:10.477Z,34.60
2019-04-14T02:33:50.893Z,36.07
2019-04-14T02:36:36.369Z,35.33
2019-04-14T02:41:27.758Z,35.83
2019-04-14T02:44:00.044Z,33.60
2019-04-14T02:46:32.011Z,33.50
2019-04-14T02:51:29.618Z,34.67
2019-04-14T03:04:01.825Z,35.87
2019-04-14T03:06:26.005Z,34.20
2019-04-14T03:09:04.501Z,33.67
2019-04-14T03:11:31.213Z,34.67
2019-04-14T03:14:02.932Z,34.00
2019-04-14T03:16:32.933Z,36.00
2019-04-14T03:18:57.671Z,34.07
2019-04-14T03:21:42.117Z,34.63
2019-04-14T03:24:21.754Z,35.70
2019-04-14T03:27:11.915Z,35.47
2019-04-14T03:29:43.808Z,34.80
2019-04-14T03:32:32.306Z,35.77
2019-04-14T03:39:46.597Z,34.23
2019-04-14T03:42:19.833Z,37.53
2019-04-14T03:44:41.319Z,37.70
2019-04-14T03:47:13.550Z,37.93
2019-04-14T03:49:45.107Z,38.03
2019-04-14T03:52:15.292Z,38.87
2019-04-14T03:54:36.348Z,37.27
2019-04-14T03:56:49.242Z,35.73
2019-04-14T03:59:17.827Z,37.93
2019-04-14T04:01:47.773Z,36.03
2019-04-14T04:04:16.574Z,37.10
2019-04-14T04:06:46.290Z,36.73
2019-04-14T04:09:15.108Z,38.10
2019-04-14T04:11:43.544Z,38.73
2019-04-14T04:14:11.946Z,39.63
2019-04-14T04:16:42.248Z,37.93
2019-04-14T04:19:17.842Z,36.10
2019-04-14T04:21:50.829Z,39.67
2019-04-14T04:24:33.559Z,38.70
2019-04-14T04:27:04.776Z,35.87
2019-04-14T04:29:35.132Z,44.40
2019-04-14T04:32:22.918Z,37.53
2019-04-14T04:34:53.439Z,38.37
2019-04-14T04:37:23.621Z,38.40
2019-04-14T04:39:54.098Z,39.10
2019-04-14T04:42:22.619Z,39.40
2019-04-14T04:44:51.078Z,37.93
2019-04-14T04:47:19.498Z,37.07
2019-04-14T04:49:49.012Z,39.70
2019-04-14T04:52:17.543Z,40.00
2019-04-14T04:54:45.951Z,38.17
2019-04-14T04:57:15.459Z,38.93
2019-04-14T04:59:45.186Z,38.60
2019-04-14T05:02:13.811Z,38.83
2019-04-14T05:04:42.243Z,37.80
2019-04-14T05:07:10.711Z,37.17
2019-04-14T05:09:43.454Z,38.83
2019-04-14T05:12:17.339Z,39.07
2019-04-14T05:14:50.683Z,39.00
2019-04-14T05:17:21.250Z,40.77
2019-04-14T05:19:49.738Z,40.07
2019-04-14T05:22:19.346Z,39.90
2019-04-14T05:24:48.584Z,40.57
2019-04-14T05:27:17.146Z,37.97
2019-04-14T05:29:45.594Z,38.33
2019-04-14T05:32:15.127Z,40.17
2019-04-14T05:34:43.715Z,38.27
2019-04-14T05:37:12.118Z,40.40
2019-04-14T05:39:41.815Z,41.80
2019-04-14T05:42:17.134Z,38.90
2019-04-14T05:44:40.488Z,37.63
2019-04-14T05:47:08.925Z,39.57
2019-04-14T05:49:44.254Z,36.73
2019-04-14T05:52:07.796Z,40.83
2019-04-14T05:54:36.204Z,38.97
2019-04-14T05:57:04.797Z,36.10
2019-04-14T05:59:33.626Z,40.43
2019-04-14T06:02:02.593Z,39.00
2019-04-14T06:04:31.151Z,36.40
2019-04-14T06:06:59.969Z,38.00
2019-04-14T06:09:28.767Z,36.17
2019-04-14T06:11:57.167Z,38.60
2019-04-14T06:14:25.613Z,37.30
2019-04-14T06:16:54.023Z,36.80
2019-04-14T06:19:22.493Z,36.60
2019-04-14T06:21:50.906Z,38.37
2019-04-14T06:24:19.319Z,38.53
2019-04-14T06:26:47.843Z,39.33
2019-04-14T06:29:16.273Z,40.50
2019-04-14T06:31:46.315Z,36.30
2019-04-14T06:34:19.112Z,35.30
2019-04-14T06:36:52.076Z,36.80
2019-04-14T06:39:30.807Z,35.50
2019-04-14T06:41:59.325Z,38.53
2019-04-14T06:44:27.755Z,33.93
2019-04-14T06:46:56.156Z,37.20
2019-04-14T06:49:24.606Z,34.47
2019-04-14T06:51:53.026Z,35.47
2019-04-14T06:54:21.473Z,35.47
2019-04-14T06:56:49.892Z,37.40
2019-04-14T06:59:18.325Z,34.80
2019-04-14T07:01:46.741Z,34.00
2019-04-14T07:04:15.194Z,35.37
2019-04-14T07:06:43.603Z,35.87
2019-04-14T07:09:12.026Z,37.43
2019-04-14T07:11:40.477Z,36.13
2019-04-14T07:14:08.888Z,35.97
2019-04-14T07:16:37.337Z,37.20
2019-04-14T07:19:05.752Z,37.80
2019-04-14T07:21:34.154Z,37.47
2019-04-14T07:24:02.625Z,34.13
2019-04-14T07:26:31.040Z,33.37
2019-04-14T07:28:59.462Z,35.07
2019-04-14T07:31:38.222Z,33.23
2019-04-14T07:34:11.039Z,37.50
2019-04-14T07:36:53.063Z,38.10
2019-04-14T07:39:32.026Z,36.03
2019-04-14T07:42:14.484Z,33.27
2019-04-14T07:45:00.441Z,33.97
2019-04-14T07:47:39.552Z,34.67
2019-04-14T07:50:14.851Z,33.80
2019-04-14T07:52:44.674Z,34.30
2019-04-14T07:55:14.870Z,33.13
2019-04-14T07:57:44.961Z,31.77
2019-04-14T08:00:31.570Z,33.07
2019-04-14T08:03:01.693Z,33.90
2019-04-14T08:05:31.761Z,32.00
2019-04-14T08:08:00.235Z,32.53
2019-04-14T08:10:28.651Z,30.80
2019-04-14T08:12:57.045Z,32.40
2019-04-14T08:15:25.572Z,31.57
2019-04-14T08:17:54.132Z,31.23
2019-04-14T08:20:27.800Z,33.70
2019-04-14T08:22:52.797Z,33.43
2019-04-14T08:25:21.255Z,32.93
2019-04-14T08:27:49.727Z,33.07
2019-04-14T08:30:18.382Z,32.63
2019-04-14T08:32:46.921Z,33.47
2019-04-14T08:35:15.530Z,33.47
2019-04-14T08:37:43.967Z,34.13
2019-04-14T08:40:12.658Z,32.00
2019-04-14T08:42:58.940Z,32.07
2019-04-14T08:45:38.125Z,32.80
2019-04-14T08:48:17.259Z,30.13
2019-04-14T08:50:56.288Z,29.60
2019-04-14T08:53:32.349Z,28.47
2019-04-14T08:56:20.319Z,28.70
2019-04-14T08:59:05.342Z,25.43
2019-04-14T09:01:50.826Z,25.70
2019-04-14T09:04:37.518Z,25.27
2019-04-14T09:07:22.586Z,25.10
2019-04-14T09:09:52.676Z,25.40
2019-04-14T09:12:28.736Z,24.90
2019-04-14T09:14:57.775Z,25.97
2019-04-14T09:17:27.803Z,29.60
2019-04-14T09:19:56.259Z,25.50
2019-04-14T09:22:24.664Z,25.37
2019-04-14T09:24:53.120Z,25.00
2019-04-14T09:27:21.608Z,24.80
2019-04-14T09:29:52.178Z,24.67
2019-04-14T09:32:20.560Z,24.30
2019-04-14T09:34:49.013Z,23.80
2019-04-14T09:37:17.472Z,25.00
2019-04-14T09:39:45.892Z,24.37
2019-04-14T09:44:48.727Z,24.07
2019-04-14T09:47:17.193Z,24.77
2019-04-14T09:49:45.644Z,24.57
2019-04-14T09:52:14.063Z,25.30
2019-04-14T09:54:42.521Z,24.53
2019-04-14T09:57:10.953Z,24.40
2019-04-14T09:59:39.501Z,24.07
2019-04-14T10:02:07.925Z,22.80
2019-04-14T10:04:36.383Z,23.03
2019-04-14T10:07:04.852Z,24.70
2019-04-14T10:09:33.376Z,23.07
2019-04-14T10:12:01.804Z,24.10
2019-04-14T10:14:30.232Z,22.27
2019-04-14T10:17:01.142Z,22.67
2019-04-14T10:19:28.826Z,21.97
2019-04-14T10:21:57.251Z,22.80
2019-04-14T10:24:25.730Z,21.47
2019-04-14T10:26:54.147Z,21.60
2019-04-14T10:29:22.602Z,21.03
2019-04-14T10:31:51.020Z,20.93
2019-04-14T10:34:19.425Z,20.60
2019-04-14T10:36:47.877Z,20.20
2019-04-14T10:39:16.328Z,20.40
2019-04-14T10:41:44.803Z,19.47
2019-04-14T10:44:13.249Z,20.60
2019-04-14T10:46:41.695Z,20.63
2019-04-14T10:49:10.229Z,20.30
2019-04-14T10:51:38.684Z,19.93
2019-04-14T10:54:07.097Z,19.47
2019-04-14T10:56:35.594Z,20.53
2019-04-14T10:59:03.977Z,20.00
2019-04-14T11:01:32.398Z,20.17
2019-04-14T11:04:00.904Z,19.70
2019-04-14T11:06:30.958Z,18.43
2019-04-14T11:08:59.413Z,20.27
2019-04-14T11:11:27.861Z,19.73
2019-04-14T11:13:56.308Z,19.67
2019-04-14T11:16:24.762Z,19.05
2019-04-14T11:18:53.202Z,19.87
2019-04-14T11:21:21.651Z,19.37
2019-04-14T11:23:50.084Z,19.50
2019-04-14T11:26:18.573Z,18.17
2019-04-14T11:28:46.968Z,19.87
2019-04-14T11:31:17.114Z,19.80
2019-04-14T11:34:01.431Z,21.25
2019-04-14T11:36:37.195Z,18.32
2019-04-14T11:39:08.405Z,17.85
2019-04-14T11:41:36.905Z,18.20
2019-04-14T11:44:05.786Z,17.45
2019-04-14T11:46:34.213Z,17.52
2019-04-14T11:49:02.805Z,16.60
2019-04-14T11:51:31.432Z,18.55
2019-04-14T11:54:00.572Z,17.02
2019-04-14T11:56:29.147Z,17.77
2019-04-14T11:58:57.795Z,18.00
2019-04-14T12:01:45.777Z,16.77
2019-04-14T12:04:16.004Z,17.93
2019-04-14T12:06:46.155Z,18.33
2019-04-14T12:09:21.748Z,18.30
2019-04-14T12:11:50.257Z,19.00
2019-04-14T12:14:18.734Z,19.00
2019-04-14T12:16:47.174Z,18.70
2019-04-14T12:19:15.568Z,18.07
2019-04-14T12:21:44.028Z,17.47
2019-04-14T12:24:12.442Z,17.57
2019-04-14T12:26:40.921Z,16.90
2019-04-14T12:29:09.704Z,18.27
2019-04-14T12:31:39.624Z,17.57
2019-04-14T12:34:08.115Z,16.47
2019-04-14T12:36:36.577Z,17.73
2019-04-14T12:39:08.169Z,17.30
2019-04-14T12:41:49.934Z,17.40
2019-04-14T12:44:26.164Z,17.20
2019-04-14T12:47:11.422Z,16.13
2019-04-14T12:49:54.944Z,16.40
2019-04-14T12:52:25.082Z,15.90
2019-04-14T12:54:53.709Z,17.27
2019-04-14T12:57:27.536Z,18.00
2019-04-14T12:59:56.004Z,17.20
2019-04-14T13:02:26.409Z,17.37
2019-04-14T13:04:55.470Z,17.20
2019-04-14T13:07:24.045Z,16.97
2019-04-14T13:09:52.490Z,17.20
2019-04-14T13:12:20.960Z,17.20
2019-04-14T13:14:49.364Z,17.07
2019-04-14T13:17:18.026Z,17.80
2019-04-14T13:19:46.467Z,17.80
2019-04-14T13:22:14.941Z,17.83
2019-04-14T13:24:43.410Z,16.77
2019-04-14T13:27:11.973Z,16.73
2019-04-14T13:29:40.553Z,18.20
2019-04-14T13:32:09.077Z,18.27
2019-04-14T13:34:37.585Z,18.63
2019-04-14T13:37:06.234Z,17.60
2019-04-14T13:39:34.685Z,17.97
2019-04-14T13:42:03.136Z,18.93
2019-04-14T13:44:31.585Z,18.10
2019-04-14T13:47:00.024Z,17.80
2019-04-14T13:49:28.474Z,17.57
2019-04-14T13:51:56.913Z,17.27
2019-04-14T13:54:25.348Z,16.53
2019-04-14T13:56:53.775Z,17.50
2019-04-14T13:59:22.580Z,16.63
2019-04-14T14:01:50.999Z,15.47
2019-04-14T14:04:19.453Z,15.77
2019-04-14T14:06:47.881Z,16.60
2019-04-14T14:09:17.040Z,15.63
2019-04-14T14:11:56.170Z,16.20
2019-04-14T14:14:32.000Z,15.80
2019-04-14T14:17:20.258Z,15.60
2019-04-14T14:20:05.826Z,16.00
2019-04-14T14:22:38.843Z,15.70
2019-04-14T14:25:11.783Z,16.17
2019-04-14T14:27:40.210Z,16.10
2019-04-14T14:30:10.841Z,15.03
2019-04-14T14:32:39.312Z,14.70
2019-04-14T14:35:08.243Z,16.43
2019-04-14T14:37:36.707Z,16.63
2019-04-14T14:40:06.611Z,15.43
2019-04-14T14:42:35.248Z,16.63
2019-04-14T14:45:23.028Z,15.43
2019-04-14T14:47:59.242Z,17.17
2019-04-14T14:50:45.446Z,16.90
2019-04-14T14:53:14.067Z,15.47
2019-04-14T14:55:42.565Z,16.10
2019-04-14T14:58:11.062Z,15.70
2019-04-14T15:00:39.546Z,16.77
2019-04-14T15:03:08.138Z,15.03
2019-04-14T15:05:36.648Z,15.40
2019-04-14T15:08:05.143Z,15.60
2019-04-14T15:10:33.708Z,15.20
2019-04-14T15:13:02.107Z,16.33
2019-04-14T15:15:30.634Z,16.03
2019-04-14T15:17:59.079Z,15.83
2019-04-14T15:20:27.627Z,14.70
2019-04-14T15:22:56.071Z,13.87
2019-04-14T15:25:24.501Z,14.33
2019-04-14T15:27:53.041Z,14.23
2019-04-14T15:30:22.739Z,13.60
2019-04-14T15:32:51.192Z,14.03
2019-04-14T15:35:19.615Z,12.60
2019-04-14T15:37:48.069Z,13.37
2019-04-14T15:40:16.848Z,12.03
2019-04-14T15:42:45.776Z,13.60
2019-04-14T15:45:14.394Z,13.00
2019-04-14T15:47:42.846Z,12.93
2019-04-14T15:50:11.515Z,12.30
2019-04-14T15:52:39.959Z,11.83
2019-04-14T15:55:08.459Z,10.47
2019-04-14T15:57:44.299Z,11.77
2019-04-14T16:00:33.408Z,11.13
2019-04-14T16:03:19.560Z,10.57
2019-04-14T16:06:06.121Z,10.10
2019-04-14T16:08:36.285Z,9.60
2019-04-14T16:11:15.460Z,10.03
2019-04-14T16:13:45.520Z,9.53
2019-04-14T16:16:21.733Z,9.37
2019-04-14T16:19:06.953Z,9.20
2019-04-14T16:21:35.377Z,9.40
2019-04-14T16:24:04.010Z,9.50
2019-04-14T16:26:43.116Z,9.40
2019-04-14T16:29:13.171Z,8.10
2019-04-14T16:31:43.220Z,9.40
2019-04-14T16:34:20.967Z,8.87
2019-04-14T16:36:53.538Z,9.90
2019-04-14T16:39:22.135Z,10.47
2019-04-14T16:41:51.300Z,10.40
2019-04-14T16:44:19.746Z,9.43
2019-04-14T16:46:48.254Z,9.50
2019-04-14T16:49:16.659Z,9.47
2019-04-14T16:51:52.431Z,9.20
2019-04-14T16:54:22.509Z,9.60
2019-04-14T16:56:55.402Z,9.77
2019-04-14T16:59:23.836Z,9.40
2019-04-14T17:01:52.269Z,8.80
2019-04-14T17:04:20.712Z,9.67
2019-04-14T17:06:51.682Z,10.30
2019-04-14T17:09:20.098Z,10.30
2019-04-14T17:11:48.550Z,10.13
2019-04-14T17:14:25.042Z,9.60
2019-04-14T17:16:55.115Z,9.87
2019-04-14T17:19:25.209Z,10.07
2019-04-14T17:22:01.286Z,9.47
2019-04-14T17:24:31.372Z,9.40
2019-04-14T17:27:10.410Z,9.30
2019-04-14T17:29:54.834Z,9.37
2019-04-14T17:32:24.563Z,9.50
2019-04-14T17:34:54.650Z,9.50
2019-04-14T17:37:41.246Z,9.13
2019-04-14T17:40:11.554Z,9.03
2019-04-14T17:42:41.599Z,9.80
2019-04-14T17:45:28.299Z,10.33
2019-04-14T17:48:01.076Z,9.40
2019-04-14T17:50:46.128Z,9.67
2019-04-14T17:53:16.181Z,10.30
2019-04-14T17:55:50.150Z,10.33
2019-04-14T17:58:37.060Z,10.20
2019-04-14T18:01:21.892Z,9.50
2019-04-14T18:04:03.924Z,10.10
2019-04-14T18:06:34.044Z,9.33
2019-04-14T18:09:22.380Z,10.93
2019-04-14T18:11:55.474Z,8.87
2019-04-14T18:14:31.627Z,10.47
2019-04-14T18:17:18.306Z,10.75
2019-04-14T18:19:51.118Z,9.83
2019-04-14T18:22:19.705Z,9.37
2019-04-14T18:24:48.153Z,9.47
2019-04-14T18:27:16.820Z,9.40
2019-04-14T18:29:49.487Z,9.83
2019-04-14T18:32:22.383Z,9.37
2019-04-14T18:35:07.786Z,10.00
2019-04-14T18:37:49.920Z,9.27
2019-04-14T18:40:20.016Z,9.63
2019-04-14T18:43:08.499Z,9.60
2019-04-14T18:45:56.728Z,9.47
2019-04-14T18:48:42.984Z,9.07
2019-04-14T18:51:13.147Z,9.33
2019-04-14T18:54:01.965Z,9.67
2019-04-14T18:56:41.346Z,9.30
2019-04-14T18:59:20.531Z,9.47
2019-04-14T19:01:50.719Z,8.97
2019-04-14T19:04:19.282Z,9.23
2019-04-14T19:06:47.936Z,8.83
2019-04-14T19:09:16.373Z,8.90
2019-04-14T19:11:46.461Z,8.73
2019-04-14T19:14:16.735Z,8.23
2019-04-14T19:16:46.886Z,8.67
2019-04-14T19:19:17.242Z,7.73
2019-04-14T19:21:45.666Z,8.40
2019-04-14T19:24:14.196Z,8.47
2019-04-14T19:26:42.698Z,7.90
2019-04-14T19:29:11.231Z,7.87
2019-04-14T19:31:39.661Z,8.53
2019-04-14T19:34:08.217Z,8.10
2019-04-14T19:36:36.729Z,9.03
2019-04-14T19:39:09.332Z,8.10
2019-04-14T19:41:37.921Z,8.20
2019-04-14T19:44:06.461Z,8.47
2019-04-14T19:46:34.903Z,7.90
2019-04-14T19:49:03.407Z,8.33
2019-04-14T19:51:33.411Z,8.13
2019-04-14T19:54:01.960Z,8.50
2019-04-14T19:56:30.408Z,7.60
2019-04-14T19:58:58.867Z,9.23
2019-04-14T20:01:27.375Z,8.73
2019-04-14T20:03:55.983Z,8.73
2019-04-14T20:06:24.413Z,8.70
2019-04-14T20:08:53.037Z,8.83
2019-04-14T20:11:21.679Z,8.10
2019-04-14T20:13:50.143Z,8.27
2019-04-14T20:16:37.008Z,8.23
2019-04-14T20:19:22.486Z,7.80
2019-04-14T20:22:09.076Z,7.40
2019-04-14T20:24:39.180Z,7.13
2019-04-14T20:27:14.973Z,7.43
2019-04-14T20:29:48.110Z,7.97
2019-04-14T20:32:21.111Z,7.60
2019-04-14T20:34:49.570Z,8.03
2019-04-14T20:37:17.972Z,7.30
2019-04-14T20:39:46.437Z,7.47
2019-04-14T20:42:15.019Z,7.33
2019-04-14T20:44:43.460Z,8.23
2019-04-14T20:47:11.914Z,8.17
2019-04-14T20:49:40.318Z,11.70
2019-04-14T20:52:08.903Z,11.50
2019-04-14T20:54:37.325Z,10.67
2019-04-14T20:57:06.112Z,9.33
2019-04-14T20:59:34.750Z,7.47
2019-04-14T21:02:20.687Z,7.27
2019-04-14T21:04:50.877Z,6.93
2019-04-14T21:07:37.268Z,7.07
2019-04-14T21:10:08.356Z,6.60
2019-04-14T21:12:38.425Z,6.10
2019-04-14T21:15:15.219Z,6.33
2019-04-14T21:17:45.342Z,6.40
2019-04-14T21:20:32.015Z,7.10
2019-04-14T21:23:10.625Z,6.87
2019-04-14T21:26:00.818Z,7.10
2019-04-14T21:28:28.897Z,6.63
2019-04-14T21:30:59.001Z,6.67
2019-04-14T21:33:31.818Z,6.63
2019-04-14T21:36:04.888Z,6.23
2019-04-14T21:38:44.000Z,6.07
2019-04-14T21:41:26.020Z,6.60
2019-04-14T21:43:54.428Z,6.23
2019-04-14T21:46:22.938Z,6.87
2019-04-14T21:48:51.473Z,6.53
2019-04-14T21:51:21.018Z,6.47
2019-04-14T21:53:49.438Z,7.20
2019-04-14T21:56:18.153Z,7.00
2019-04-14T21:58:48.305Z,6.43
2019-04-14T22:01:37.330Z,6.17
2019-04-14T22:04:10.315Z,6.50
2019-04-14T22:06:40.435Z,6.93
2019-04-14T22:09:13.158Z,6.70
2019-04-14T22:11:41.692Z,6.50
2019-04-14T22:14:10.186Z,6.87
2019-04-14T22:16:38.733Z,7.47
2019-04-14T22:19:07.829Z,6.70
2019-04-14T22:21:36.236Z,6.93
2019-04-14T22:24:04.791Z,6.27
2019-04-14T22:26:33.298Z,6.03
2019-04-14T22:29:02.559Z,6.00
2019-04-14T22:31:31.178Z,6.40
2019-04-14T22:33:59.710Z,6.53
2019-04-14T22:36:28.112Z,5.30
2019-04-14T22:38:56.646Z,5.50
2019-04-14T22:41:25.014Z,5.90
2019-04-14T22:43:53.426Z,6.07
2019-04-14T22:46:21.953Z,6.67
2019-04-14T22:48:50.362Z,6.10
2019-04-14T22:51:18.821Z,6.43
2019-04-14T22:53:47.276Z,6.30
2019-04-14T22:56:15.700Z,6.00
2019-04-14T22:58:44.139Z,6.07
2019-04-14T23:01:23.454Z,5.60
2019-04-14T23:03:55.996Z,5.83
2019-04-14T23:06:26.087Z,5.77
2019-04-14T23:08:56.219Z,5.57
2019-04-14T23:11:35.500Z,5.30
2019-04-14T23:14:14.715Z,5.50
2019-04-14T23:16:47.820Z,5.97
2019-04-14T23:19:20.556Z,5.70
2019-04-14T23:21:53.293Z,6.67
2019-04-14T23:24:23.326Z,5.63
2019-04-14T23:26:53.197Z,5.83
2019-04-14T23:29:21.855Z,5.97
2019-04-14T23:31:50.353Z,6.00
2019-04-14T23:34:18.824Z,6.53
2019-04-14T23:36:47.304Z,6.20
2019-04-14T23:39:15.824Z,6.20
2019-04-14T23:41:44.343Z,6.27
2019-04-14T23:44:12.923Z,6.37
2019-04-14T23:46:41.324Z,6.77
2019-04-14T23:49:09.724Z,6.83
2019-04-14T23:51:38.171Z,6.80
2019-04-14T23:54:06.613Z,6.43
2019-04-14T23:56:34.996Z,6.13
2019-04-14T23:59:03.545Z,6.67
